createdAt,value
2023-03-16T00:00:40.632Z,20.10
2023-03-16T00:03:23.745Z,18.60
2023-03-16T00:05:56.917Z,18.30
2023-03-16T00:08:29.169Z,16.40
2023-03-16T00:11:02.832Z,16.60
2023-03-16T00:13:35.146Z,20.80
2023-03-16T00:16:07.895Z,19.50
2023-03-16T00:18:42.079Z,19.10
2023-03-16T00:21:16.223Z,24.30
2023-03-16T00:23:48.500Z,23.40
2023-03-16T00:26:21.022Z,21.00
2023-03-16T00:28:54.420Z,18.60
2023-03-16T00:31:26.753Z,16.90
2023-03-16T00:33:59.102Z,15.80
2023-03-16T00:36:34.028Z,13.90
2023-03-16T00:39:07.046Z,15.80
2023-03-16T00:41:39.693Z,23.00
2023-03-16T00:44:12.045Z,17.80
2023-03-16T00:46:44.207Z,15.80
2023-03-16T00:49:16.493Z,15.40
2023-03-16T00:51:48.955Z,14.70
2023-03-16T00:54:22.320Z,12.30
2023-03-16T00:56:55.010Z,12.40
2023-03-16T00:59:27.487Z,11.80
2023-03-16T01:01:59.810Z,12.70
2023-03-16T01:04:32.614Z,11.50
2023-03-16T01:07:05.742Z,13.40
2023-03-16T01:09:38.084Z,13.90
2023-03-16T01:12:13.410Z,16.20
2023-03-16T01:17:19.596Z,12.10
2023-03-16T01:19:52.508Z,13.30
2023-03-16T01:22:25.998Z,13.80
2023-03-16T01:25:00.099Z,17.00
2023-03-16T01:27:33.517Z,17.80
2023-03-16T01:30:06.782Z,17.40
2023-03-16T01:32:40.043Z,19.40
2023-03-16T01:35:13.976Z,20.20
2023-03-16T01:37:46.383Z,18.60
2023-03-16T01:40:26.489Z,21.50
2023-03-16T01:43:04.608Z,21.40
2023-03-16T01:46:18.205Z,21.60
2023-03-16T01:49:00.833Z,21.10
2023-03-16T01:51:43.089Z,24.00
2023-03-16T01:54:23.144Z,21.60
2023-03-16T01:57:02.543Z,24.00
2023-03-16T01:59:38.643Z,23.20
2023-03-16T02:02:13.485Z,22.10
2023-03-16T02:04:52.438Z,21.30
2023-03-16T02:07:28.927Z,23.10
2023-03-16T02:10:04.950Z,22.60
2023-03-16T02:12:37.906Z,22.20
2023-03-16T02:15:14.034Z,23.20
2023-03-16T02:17:48.455Z,28.10
2023-03-16T02:20:33.522Z,27.60
2023-03-16T02:23:07.449Z,24.40
2023-03-16T02:25:46.174Z,30.80
2023-03-16T02:28:26.350Z,26.20
2023-03-16T02:30:59.166Z,24.10
2023-03-16T02:33:33.926Z,22.10
2023-03-16T02:36:07.642Z,22.50
2023-03-16T02:38:40.009Z,25.20
2023-03-16T02:41:16.180Z,32.50
2023-03-16T02:43:54.920Z,28.70
2023-03-16T02:46:36.004Z,29.00
2023-03-16T02:49:17.537Z,27.20
2023-03-16T02:51:50.600Z,25.10
2023-03-16T02:54:23.374Z,22.50
2023-03-16T02:56:57.190Z,19.50
2023-03-16T02:59:30.258Z,19.80
2023-03-16T03:02:02.813Z,16.70
2023-03-16T03:04:35.188Z,16.90
2023-03-16T03:07:07.634Z,16.00
2023-03-16T03:09:53.791Z,16.40
2023-03-16T03:12:26.272Z,16.60
2023-03-16T03:14:58.968Z,13.70
2023-03-16T03:17:33.334Z,14.20
2023-03-16T03:20:13.910Z,12.60
2023-03-16T03:22:47.820Z,13.20
2023-03-16T03:25:21.972Z,15.10
2023-03-16T03:27:55.836Z,15.60
2023-03-16T03:30:29.045Z,15.00
2023-03-16T03:33:02.039Z,14.60
2023-03-16T03:35:35.012Z,15.90
2023-03-16T03:38:08.204Z,14.00
2023-03-16T03:40:41.448Z,12.90
2023-03-16T03:43:14.110Z,12.80
2023-03-16T03:45:47.579Z,13.50
2023-03-16T03:48:20.501Z,12.70
2023-03-16T03:50:52.944Z,13.80
2023-03-16T03:53:47.032Z,13.20
2023-03-16T03:56:44.112Z,11.40
2023-03-16T03:59:18.846Z,11.40
2023-03-16T04:02:03.480Z,12.40
2023-03-16T04:04:56.065Z,15.60
2023-03-16T04:07:28.409Z,22.70
2023-03-16T04:10:02.507Z,25.40
2023-03-16T04:12:39.908Z,27.70
2023-03-16T04:15:15.086Z,35.20
2023-03-16T04:18:10.470Z,23.30
2023-03-16T04:20:43.181Z,27.50
2023-03-16T04:23:16.846Z,23.90
2023-03-16T04:25:49.942Z,31.20
2023-03-16T04:28:23.423Z,21.10
2023-03-16T04:30:57.423Z,21.80
2023-03-16T04:33:35.353Z,22.40
2023-03-16T04:36:09.267Z,22.00
2023-03-16T04:38:42.814Z,25.30
2023-03-16T04:41:15.407Z,30.30
2023-03-16T04:43:54.356Z,31.20
2023-03-16T04:46:29.641Z,20.20
2023-03-16T04:49:03.177Z,18.10
2023-03-16T04:51:35.987Z,19.70
2023-03-16T04:54:11.387Z,20.10
2023-03-16T04:56:46.425Z,19.40
2023-03-16T04:59:30.919Z,22.80
2023-03-16T05:02:08.327Z,28.50
2023-03-16T05:04:42.602Z,36.00
2023-03-16T05:07:16.712Z,32.60
2023-03-16T05:09:53.330Z,25.40
2023-03-16T05:12:25.753Z,22.40
2023-03-16T05:15:01.802Z,22.00
2023-03-16T05:17:46.768Z,23.80
2023-03-16T05:20:21.981Z,32.20
2023-03-16T05:22:56.627Z,52.20
2023-03-16T05:25:32.171Z,44.00
2023-03-16T05:28:07.882Z,34.00
2023-03-16T05:30:46.413Z,50.80
2023-03-16T05:33:22.483Z,36.30
2023-03-16T05:35:58.694Z,26.30
2023-03-16T05:38:32.018Z,20.60
2023-03-16T05:41:06.066Z,24.10
2023-03-16T05:43:53.379Z,28.70
2023-03-16T05:46:26.767Z,21.70
2023-03-16T05:48:59.493Z,19.80
2023-03-16T05:51:32.128Z,18.60
2023-03-16T05:54:05.044Z,31.30
2023-03-16T05:56:41.387Z,31.80
2023-03-16T05:59:14.594Z,24.40
2023-03-16T06:01:47.118Z,21.30
2023-03-16T06:04:19.793Z,20.50
2023-03-16T06:06:52.290Z,26.30
2023-03-16T06:09:27.049Z,21.30
2023-03-16T06:11:59.495Z,17.20
2023-03-16T06:14:31.990Z,18.40
2023-03-16T06:17:05.388Z,26.90
2023-03-16T06:19:39.971Z,19.40
2023-03-16T06:22:13.457Z,15.80
2023-03-16T06:24:45.902Z,15.30
2023-03-16T06:27:20.457Z,19.40
2023-03-16T06:30:08.812Z,19.40
2023-03-16T06:32:43.208Z,21.60
2023-03-16T06:35:16.127Z,32.00
2023-03-16T06:37:53.626Z,45.00
2023-03-16T06:40:35.609Z,30.60
2023-03-16T06:43:08.012Z,54.50
2023-03-16T06:45:40.588Z,46.50
2023-03-16T06:48:13.301Z,82.10
2023-03-16T06:50:47.680Z,40.70
2023-03-16T06:53:24.636Z,33.90
2023-03-16T06:55:57.534Z,20.10
2023-03-16T06:58:31.573Z,51.70
2023-03-16T07:01:05.878Z,94.40
2023-03-16T07:03:38.143Z,37.00
2023-03-16T07:06:18.211Z,128.10
2023-03-16T07:08:50.800Z,67.90
2023-03-16T07:11:23.806Z,39.10
2023-03-16T07:13:56.392Z,23.90
2023-03-16T07:16:29.187Z,45.50
2023-03-16T07:19:03.687Z,54.20
2023-03-16T07:21:40.146Z,31.10
2023-03-16T07:24:15.362Z,42.00
2023-03-16T07:26:47.692Z,19.70
2023-03-16T07:29:27.781Z,35.60
2023-03-16T07:32:00.184Z,43.50
2023-03-16T07:34:38.337Z,74.30
2023-03-16T07:37:11.053Z,91.60
2023-03-16T07:39:44.363Z,33.40
2023-03-16T07:42:22.802Z,41.10
2023-03-16T07:45:05.249Z,24.30
2023-03-16T07:47:37.846Z,51.70
2023-03-16T07:50:23.395Z,29.90
2023-03-16T07:52:57.582Z,28.70
2023-03-16T07:55:30.654Z,38.50
2023-03-16T07:58:05.148Z,29.80
2023-03-16T08:00:39.732Z,10.30
2023-03-16T08:03:12.339Z,41.80
2023-03-16T08:05:44.922Z,20.90
2023-03-16T08:08:20.381Z,31.10
2023-03-16T08:10:56.189Z,18.20
2023-03-16T08:13:32.032Z,17.20
2023-03-16T08:16:05.647Z,14.90
2023-03-16T08:18:42.697Z,17.00
2023-03-16T08:21:15.867Z,12.90
2023-03-16T08:23:50.535Z,14.10
2023-03-16T08:26:24.496Z,15.50
2023-03-16T08:29:03.283Z,12.90
2023-03-16T08:31:37.371Z,15.60
2023-03-16T08:34:18.038Z,12.50
2023-03-16T08:36:50.464Z,12.10
2023-03-16T08:39:23.194Z,18.30
2023-03-16T08:41:56.771Z,16.30
2023-03-16T08:44:40.144Z,16.00
2023-03-16T08:47:14.428Z,11.50
2023-03-16T08:49:49.296Z,11.40
2023-03-16T08:52:22.953Z,10.30
2023-03-16T08:55:03.309Z,9.50
2023-03-16T08:57:37.693Z,11.80
2023-03-16T09:00:14.986Z,12.20
2023-03-16T09:02:48.094Z,18.60
2023-03-16T09:05:20.589Z,15.30
2023-03-16T09:07:53.718Z,16.50
2023-03-16T09:10:27.851Z,15.30
2023-03-16T09:13:00.381Z,21.00
2023-03-16T09:15:32.642Z,17.80
2023-03-16T09:18:05.777Z,16.20
2023-03-16T09:20:38.462Z,14.40
2023-03-16T09:23:11.766Z,11.80
2023-03-16T09:25:44.318Z,10.90
2023-03-16T09:28:18.749Z,14.50
2023-03-16T09:30:52.130Z,9.30
2023-03-16T09:33:25.603Z,8.90
2023-03-16T09:35:59.313Z,7.60
2023-03-16T09:38:32.319Z,13.30
2023-03-16T09:41:08.548Z,11.60
2023-03-16T09:43:53.152Z,10.90
2023-03-16T09:46:34.935Z,13.70
2023-03-16T09:49:08.035Z,15.60
2023-03-16T09:51:49.853Z,5.60
2023-03-16T09:54:30.212Z,6.90
2023-03-16T09:57:03.063Z,7.80
2023-03-16T09:59:35.552Z,5.30
2023-03-16T10:02:32.230Z,5.50
2023-03-16T10:05:10.780Z,6.00
2023-03-16T10:07:54.658Z,7.70
2023-03-16T10:10:47.085Z,7.40
2023-03-16T10:13:33.186Z,6.30
2023-03-16T10:16:10.882Z,7.00
2023-03-16T10:18:46.690Z,6.90
2023-03-16T10:21:20.714Z,8.10
2023-03-16T10:23:55.489Z,10.70
2023-03-16T10:26:35.231Z,8.80
2023-03-16T10:29:12.431Z,6.50
2023-03-16T10:31:45.479Z,6.40
2023-03-16T10:34:17.933Z,6.30
2023-03-16T10:36:51.412Z,5.90
2023-03-16T10:39:23.840Z,7.40
2023-03-16T10:42:00.531Z,8.30
2023-03-16T10:44:33.518Z,7.90
2023-03-16T10:47:08.463Z,8.90
2023-03-16T10:49:47.265Z,8.40
2023-03-16T10:52:24.960Z,7.50
2023-03-16T10:55:01.331Z,7.90
2023-03-16T10:57:36.283Z,7.50
2023-03-16T11:00:20.931Z,6.20
2023-03-16T11:02:55.486Z,6.00
2023-03-16T11:05:33.908Z,8.10
2023-03-16T11:08:15.064Z,8.60
2023-03-16T11:10:57.336Z,8.90
2023-03-16T11:13:36.275Z,8.20
2023-03-16T11:16:18.893Z,4.40
2023-03-16T11:18:55.584Z,4.90
2023-03-16T11:21:41.248Z,6.20
2023-03-16T11:24:24.247Z,6.20
2023-03-16T11:26:59.615Z,6.20
2023-03-16T11:29:49.617Z,4.90
2023-03-16T11:32:27.531Z,5.20
2023-03-16T11:35:00.263Z,4.80
2023-03-16T11:37:46.334Z,3.60
2023-03-16T11:40:31.369Z,3.70
2023-03-16T11:43:13.354Z,5.00
2023-03-16T11:45:54.204Z,4.00
2023-03-16T11:48:36.716Z,4.40
2023-03-16T11:51:16.859Z,4.90
2023-03-16T11:54:09.678Z,5.20
2023-03-16T11:56:47.840Z,4.10
2023-03-16T11:59:55.324Z,4.10
2023-03-16T12:02:56.163Z,4.40
2023-03-16T12:05:55.278Z,4.90
2023-03-16T12:08:54.874Z,4.60
2023-03-16T12:11:29.966Z,4.80
2023-03-16T12:14:15.854Z,4.60
2023-03-16T12:16:55.112Z,3.80
2023-03-16T12:19:38.578Z,4.50
2023-03-16T12:22:18.850Z,4.40
2023-03-16T12:24:51.624Z,4.40
2023-03-16T12:27:31.584Z,4.70
2023-03-16T12:30:20.582Z,4.00
2023-03-16T12:33:02.203Z,4.10
2023-03-16T12:35:42.569Z,3.70
2023-03-16T12:38:38.586Z,4.80
2023-03-16T12:41:23.413Z,4.40
2023-03-16T12:44:11.176Z,4.10
2023-03-16T12:46:53.566Z,4.00
2023-03-16T12:49:28.556Z,4.50
2023-03-16T12:54:36.291Z,3.20
2023-03-16T12:57:15.873Z,3.30
2023-03-16T12:59:51.808Z,2.90
2023-03-16T13:02:31.619Z,3.10
2023-03-16T13:05:11.665Z,2.90
2023-03-16T13:07:51.898Z,2.80
2023-03-16T13:10:25.926Z,3.40
2023-03-16T13:13:08.466Z,3.80
2023-03-16T13:15:41.707Z,3.40
2023-03-16T13:18:35.334Z,4.00
2023-03-16T13:21:19.750Z,4.00
2023-03-16T13:23:59.515Z,4.80
2023-03-16T13:26:46.374Z,4.70
2023-03-16T13:29:24.473Z,4.20
2023-03-16T13:31:59.082Z,3.80
2023-03-16T13:34:34.039Z,4.80
2023-03-16T13:39:37.312Z,3.40
2023-03-16T13:42:19.129Z,4.70
2023-03-16T13:44:53.731Z,3.60
2023-03-16T13:47:28.845Z,3.90
2023-03-16T13:50:02.385Z,3.70
2023-03-16T13:52:36.810Z,3.70
2023-03-16T13:55:18.237Z,4.50
2023-03-16T13:57:51.551Z,4.20
2023-03-16T14:00:27.868Z,5.00
2023-03-16T14:03:04.535Z,4.50
2023-03-16T14:05:40.721Z,4.00
2023-03-16T14:08:20.598Z,4.60
2023-03-16T14:10:59.830Z,6.00
2023-03-16T14:13:39.335Z,5.40
2023-03-16T14:16:17.753Z,6.30
2023-03-16T14:18:56.089Z,6.00
2023-03-16T14:21:30.874Z,13.90
2023-03-16T14:24:05.661Z,7.20
2023-03-16T14:26:45.229Z,7.30
2023-03-16T14:29:22.891Z,4.60
2023-03-16T14:31:56.004Z,5.60
2023-03-16T14:34:34.035Z,6.00
2023-03-16T14:37:11.863Z,6.20
2023-03-16T14:39:44.693Z,6.80
2023-03-16T14:42:25.888Z,7.40
2023-03-16T14:45:00.121Z,6.50
2023-03-16T14:47:38.637Z,6.30
2023-03-16T14:50:15.623Z,8.70
2023-03-16T14:52:48.531Z,6.20
2023-03-16T14:55:22.954Z,6.50
2023-03-16T14:57:55.703Z,7.20
2023-03-16T15:00:29.394Z,6.20
2023-03-16T15:03:08.328Z,16.10
2023-03-16T15:05:43.339Z,47.10
2023-03-16T15:08:20.200Z,17.50
2023-03-16T15:10:59.267Z,10.40
2023-03-16T15:13:53.328Z,30.40
2023-03-16T15:16:26.150Z,13.60
2023-03-16T15:18:58.494Z,15.10
2023-03-16T15:21:31.662Z,29.00
2023-03-16T15:24:04.115Z,18.40
2023-03-16T15:26:36.481Z,11.10
2023-03-16T15:29:14.655Z,19.30
2023-03-16T15:31:47.011Z,12.30
2023-03-16T15:34:19.327Z,14.60
2023-03-16T15:36:51.967Z,7.40
2023-03-16T15:39:28.067Z,12.00
2023-03-16T15:42:00.631Z,11.60
2023-03-16T15:44:33.250Z,10.60
2023-03-16T15:47:05.654Z,108.50
2023-03-16T15:49:47.082Z,110.80
2023-03-16T15:52:28.228Z,72.60
2023-03-16T15:55:07.884Z,55.10
2023-03-16T15:57:40.288Z,39.20
2023-03-16T16:00:28.716Z,97.50
2023-03-16T16:03:03.090Z,528.90
2023-03-16T16:05:36.609Z,313.30
2023-03-16T16:08:09.313Z,120.80
2023-03-16T16:10:43.237Z,96.20
2023-03-16T16:13:18.538Z,59.10
2023-03-16T16:15:51.485Z,40.90
2023-03-16T16:18:35.121Z,37.20
2023-03-16T16:21:09.701Z,87.20
2023-03-16T16:23:42.983Z,95.90
2023-03-16T16:26:27.944Z,69.60
2023-03-16T16:29:08.618Z,46.00
2023-03-16T16:31:41.074Z,36.40
2023-03-16T16:34:17.414Z,26.40
2023-03-16T16:36:50.228Z,24.10
2023-03-16T16:39:23.101Z,93.90
2023-03-16T16:41:57.183Z,117.60
2023-03-16T16:44:34.828Z,104.50
2023-03-16T16:47:18.858Z,62.60
2023-03-16T16:49:52.024Z,39.60
2023-03-16T16:52:24.652Z,32.00
2023-03-16T16:54:57.245Z,57.70
2023-03-16T16:57:30.455Z,42.60
2023-03-16T17:00:03.965Z,28.50
2023-03-16T17:02:47.460Z,29.60
2023-03-16T17:05:24.031Z,27.70
2023-03-16T17:07:56.709Z,28.20
2023-03-16T17:10:31.480Z,30.60
2023-03-16T17:13:05.016Z,33.20
2023-03-16T17:15:37.543Z,35.00
2023-03-16T17:18:15.379Z,36.60
2023-03-16T17:20:48.136Z,40.90
2023-03-16T17:23:31.262Z,32.90
2023-03-16T17:26:11.178Z,26.10
2023-03-16T17:28:49.258Z,22.80
2023-03-16T17:31:25.398Z,34.90
2023-03-16T17:33:59.205Z,62.80
2023-03-16T17:36:31.691Z,55.20
2023-03-16T17:39:04.186Z,44.30
2023-03-16T17:41:37.180Z,41.20
2023-03-16T17:44:15.332Z,36.50
2023-03-16T17:46:49.283Z,38.30
2023-03-16T17:49:24.258Z,29.40
2023-03-16T17:51:57.548Z,27.80
2023-03-16T17:54:29.920Z,37.00
2023-03-16T17:57:02.318Z,46.80
2023-03-16T17:59:36.444Z,56.00
2023-03-16T18:02:34.737Z,43.80
2023-03-16T18:05:13.105Z,29.00
2023-03-16T18:07:48.001Z,37.00
2023-03-16T18:10:23.194Z,46.50
2023-03-16T18:13:02.458Z,62.00
2023-03-16T18:15:38.598Z,90.10
2023-03-16T18:18:21.400Z,74.10
2023-03-16T18:20:56.985Z,118.00
2023-03-16T18:23:33.613Z,153.90
2023-03-16T18:26:07.307Z,157.60
2023-03-16T18:28:39.662Z,162.40
2023-03-16T18:31:22.080Z,170.10
2023-03-16T18:33:57.386Z,153.60
2023-03-16T18:36:33.361Z,134.40
2023-03-16T18:39:08.826Z,123.10
2023-03-16T18:41:41.829Z,162.30
2023-03-16T18:44:19.945Z,179.90
2023-03-16T18:46:55.068Z,154.90
2023-03-16T18:49:33.066Z,155.80
2023-03-16T18:52:13.682Z,172.40
2023-03-16T18:54:49.245Z,181.30
2023-03-16T18:57:23.612Z,158.70
2023-03-16T18:59:58.942Z,140.40
2023-03-16T19:05:13.069Z,119.20
2023-03-16T19:07:48.230Z,112.50
2023-03-16T19:10:29.958Z,90.40
2023-03-16T19:13:02.986Z,87.70
2023-03-16T19:15:35.840Z,91.20
2023-03-16T19:18:10.383Z,70.40
2023-03-16T19:20:45.216Z,58.60
2023-03-16T19:23:25.925Z,69.30
2023-03-16T19:25:59.693Z,64.60
2023-03-16T19:28:36.642Z,68.60
2023-03-16T19:31:16.659Z,79.90
2023-03-16T19:33:49.859Z,100.50
2023-03-16T19:36:26.633Z,113.10
2023-03-16T19:38:59.310Z,122.20
2023-03-16T19:41:33.865Z,139.30
2023-03-16T19:44:15.363Z,132.10
2023-03-16T19:46:49.095Z,132.50
2023-03-16T19:49:24.375Z,124.20
2023-03-16T19:51:58.267Z,92.20
2023-03-16T19:54:33.538Z,102.90
2023-03-16T19:57:12.481Z,157.70
2023-03-16T19:59:49.744Z,174.30
2023-03-16T20:02:31.619Z,193.10
2023-03-16T20:05:04.024Z,237.30
2023-03-16T20:07:38.284Z,229.80
2023-03-16T20:10:19.283Z,206.10
2023-03-16T20:12:57.628Z,152.40
2023-03-16T20:15:34.491Z,145.00
2023-03-16T20:18:13.765Z,153.40
2023-03-16T20:20:47.363Z,135.10
2023-03-16T20:23:26.869Z,150.90
2023-03-16T20:26:03.883Z,189.10
2023-03-16T20:28:39.603Z,150.20
2023-03-16T20:31:20.948Z,149.90
2023-03-16T20:33:54.808Z,134.10
2023-03-16T20:36:28.173Z,127.70
2023-03-16T20:39:00.601Z,133.90
2023-03-16T20:41:34.121Z,171.00
2023-03-16T20:44:06.570Z,231.70
2023-03-16T20:46:41.470Z,221.70
2023-03-16T20:49:31.460Z,220.20
2023-03-16T20:52:04.058Z,259.10
2023-03-16T20:54:38.916Z,277.00
2023-03-16T20:57:17.761Z,281.50
2023-03-16T20:59:51.768Z,287.40
2023-03-16T21:02:29.997Z,275.50
2023-03-16T21:05:04.831Z,234.50
2023-03-16T21:07:37.154Z,223.20
2023-03-16T21:10:10.623Z,208.80
2023-03-16T21:12:46.249Z,204.50
2023-03-16T21:15:23.775Z,171.90
2023-03-16T21:18:01.345Z,137.10
2023-03-16T21:20:35.719Z,141.50
2023-03-16T21:23:15.901Z,142.30
2023-03-16T21:25:51.109Z,147.60
2023-03-16T21:30:56.220Z,121.60
2023-03-16T21:33:31.782Z,105.60
2023-03-16T21:36:06.274Z,93.50
2023-03-16T21:38:39.007Z,100.80
2023-03-16T21:41:11.728Z,87.10
2023-03-16T21:43:44.502Z,83.30
2023-03-16T21:46:20.105Z,248.20
2023-03-16T21:48:54.091Z,118.70
2023-03-16T21:51:31.388Z,132.80
2023-03-16T21:54:04.020Z,163.50
2023-03-16T21:56:36.266Z,169.20
2023-03-16T21:59:09.126Z,359.90
2023-03-16T22:02:00.411Z,299.30
2023-03-16T22:04:33.834Z,197.40
2023-03-16T22:07:11.603Z,211.20
2023-03-16T22:09:44.072Z,334.70
2023-03-16T22:12:17.170Z,390.70
2023-03-16T22:14:49.548Z,353.20
2023-03-16T22:17:23.832Z,322.70
2023-03-16T22:19:56.230Z,325.90
2023-03-16T22:22:36.424Z,327.40
2023-03-16T22:25:17.085Z,226.80
2023-03-16T22:27:50.025Z,184.30
2023-03-16T22:30:24.856Z,159.50
2023-03-16T22:32:59.412Z,112.70
2023-03-16T22:35:35.823Z,109.60
2023-03-16T22:38:13.295Z,130.40
2023-03-16T22:40:45.925Z,166.00
2023-03-16T22:43:23.794Z,176.60
2023-03-16T22:45:57.030Z,177.80
2023-03-16T22:48:31.886Z,239.50
2023-03-16T22:51:06.397Z,262.90
2023-03-16T22:53:41.057Z,263.40
2023-03-16T22:56:13.683Z,217.80
2023-03-16T22:58:49.746Z,192.50
2023-03-16T23:01:24.005Z,177.90
2023-03-16T23:06:31.520Z,168.30
2023-03-16T23:09:03.933Z,181.50
2023-03-16T23:11:37.941Z,172.00
2023-03-16T23:14:15.181Z,145.70
2023-03-16T23:16:50.324Z,130.10
2023-03-16T23:22:05.023Z,113.90
2023-03-16T23:24:37.890Z,93.10
2023-03-16T23:27:18.584Z,90.10
2023-03-16T23:29:51.171Z,90.00
2023-03-16T23:32:23.387Z,92.80
2023-03-16T23:34:55.581Z,99.90
2023-03-16T23:37:27.900Z,102.40
2023-03-16T23:40:00.173Z,101.00
2023-03-16T23:42:32.901Z,96.20
2023-03-16T23:45:13.480Z,90.00
2023-03-16T23:47:48.116Z,87.40
2023-03-16T23:50:26.940Z,88.90
2023-03-16T23:52:59.487Z,88.00
2023-03-16T23:55:31.791Z,80.60
2023-03-16T23:58:04.236Z,71.50
